Time;durP1;ratioP1;P1;durP2;ratioP2;P2;SDS_P1;SDS_P2;PMS_P1;PMS_P2;Temp;Humidity;BMP_temperature;BMP_pressure;BME280_temperature;BME280_humidity;BME280_pressure;Samples;Min_cycle;Max_cycle;Signal;HPM_P1;HPM_P2
2023/01/17 00:01:06;;;;;;;2.05;1.20;;;4.10;99.90;;;;;;5010789;28;20057;-70
2023/01/17 00:03:33;;;;;;;0.98;0.30;;;4.20;99.90;;;;;;5010856;28;20046;-69
2023/01/17 00:11:26;;;;;;;0.30;0.30;;;4.00;99.90;;;;;;5010545;28;20052;-69
2023/01/17 00:13:52;;;;;;;1.00;0.43;;;4.10;99.90;;;;;;5010580;28;20443;-69
2023/01/17 00:16:17;;;;;;;0.60;0.30;;;4.00;99.90;;;;;;5011203;28;20057;-69
2023/01/17 00:26:01;;;;;;;1.75;0.40;;;3.90;99.90;;;;;;5011370;28;20073;-70
2023/01/17 01:33:41;;;;;;;5.75;1.05;;;3.90;99.90;;;;;;5030715;28;20048;-74
2023/01/17 01:36:08;;;;;;;5.70;1.08;;;4.00;99.90;;;;;;5030626;28;20112;-74
2023/01/17 01:38:34;;;;;;;4.65;0.90;;;4.00;99.90;;;;;;5042180;28;20048;-75
2023/01/17 01:40:59;;;;;;;2.90;0.75;;;3.90;99.90;;;;;;5048063;28;20045;-73
2023/01/17 01:43:48;;;;;;;5.10;1.20;;;4.00;99.90;;;;;;5050700;28;20076;-73
2023/01/17 01:46:38;;;;;;;4.57;1.15;;;4.10;99.90;;;;;;5049987;28;20514;-73
2023/01/17 01:49:23;;;;;;;6.25;1.45;;;3.90;99.90;;;;;;5051306;28;20068;-73
2023/01/17 01:51:57;;;;;;;9.70;1.23;;;4.10;99.90;;;;;;5050865;28;20049;-75
2023/01/17 01:54:27;;;;;;;8.88;1.85;;;4.10;99.90;;;;;;5050564;28;20033;-75
2023/01/17 01:56:54;;;;;;;5.43;0.90;;;3.90;99.90;;;;;;5050874;28;20499;-73
2023/01/17 01:59:22;;;;;;;3.92;0.75;;;4.00;99.90;;;;;;5051114;28;20051;-74
2023/01/17 02:01:50;;;;;;;4.47;1.30;;;4.00;99.90;;;;;;5050196;28;20051;-75
2023/01/17 02:04:16;;;;;;;7.15;0.70;;;3.80;99.90;;;;;;5032714;28;20041;-75
2023/01/17 02:06:48;;;;;;;6.80;0.85;;;3.90;99.90;;;;;;5050426;28;20152;-75
2023/01/17 02:09:15;;;;;;;4.03;1.35;;;3.90;99.90;;;;;;5050697;28;20041;-74
2023/01/17 02:11:43;;;;;;;3.67;1.40;;;3.80;99.90;;;;;;5032523;28;20037;-74
2023/01/17 02:14:14;;;;;;;4.93;0.93;;;3.80;99.90;;;;;;5050262;28;20116;-74
2023/01/17 02:16:59;;;;;;;6.40;0.93;;;3.80;99.90;;;;;;5049710;28;20052;-74
2023/01/17 02:19:43;;;;;;;3.50;0.65;;;3.70;99.90;;;;;;5051001;28;20521;-74
2023/01/17 02:22:27;;;;;;;;;;;3.70;99.90;;;;;;5050079;28;20045;-74
2023/01/17 02:25:22;;;;;;;7.93;1.60;;;3.60;99.90;;;;;;5050863;28;19917;-74
2023/01/17 02:28:15;;;;;;;7.00;1.60;;;3.70;99.90;;;;;;5053259;28;20047;-74
2023/01/17 02:30:54;;;;;;;8.47;1.40;;;3.70;99.90;;;;;;5036795;28;20205;-74
2023/01/17 02:33:48;;;;;;;9.18;1.17;;;3.70;99.90;;;;;;5052359;28;20362;-74
2023/01/17 02:36:29;;;;;;;3.58;1.02;;;3.80;99.90;;;;;;5054402;28;20087;-74
2023/01/17 02:39:16;;;;;;;7.13;1.27;;;3.60;99.90;;;;;;5053260;28;20036;-74
2023/01/17 02:41:46;;;;;;;6.30;1.20;;;3.70;99.90;;;;;;5053262;28;20048;-74
2023/01/17 02:44:19;;;;;;;7.97;1.70;;;3.70;99.90;;;;;;5052138;28;20040;-74
2023/01/17 02:46:52;;;;;;;4.07;1.42;;;3.70;99.90;;;;;;5055288;28;20040;-74
2023/01/17 02:49:21;;;;;;;4.13;1.05;;;3.80;99.90;;;;;;5054781;28;20037;-74
2023/01/17 02:52:20;;;;;;;7.35;1.27;;;3.70;99.90;;;;;;5036499;28;20040;-74
2023/01/17 02:55:03;;;;;;;10.35;1.38;;;3.70;99.90;;;;;;5054094;28;20044;-74
2023/01/17 02:57:45;;;;;;;4.63;1.50;;;3.80;99.90;;;;;;5053908;28;20040;-74
2023/01/17 03:00:18;;;;;;;6.95;1.60;;;3.70;99.90;;;;;;5053793;28;20041;-74
2023/01/17 03:03:02;;;;;;;8.93;1.65;;;3.80;99.90;;;;;;5053355;28;20045;-74
2023/01/17 03:05:31;;;;;;;;;;;3.90;99.90;;;;;;5053396;28;20052;-74
2023/01/17 03:07:59;;;;;;;6.15;2.38;;;3.80;99.90;;;;;;5053648;28;20361;-74
2023/01/17 03:10:24;;;;;;;7.57;1.85;;;3.80;99.90;;;;;;5053500;28;20102;-74
2023/01/17 03:12:56;;;;;;;7.70;1.20;;;3.80;99.90;;;;;;5051465;28;20585;-74
2023/01/17 03:15:22;;;;;;;7.68;1.25;;;3.80;99.90;;;;;;5053813;28;20044;-74
2023/01/17 03:17:51;;;;;;;7.13;1.38;;;3.90;99.90;;;;;;5053792;28;20037;-74
2023/01/17 03:20:17;;;;;;;11.70;1.52;;;3.90;99.90;;;;;;5053538;28;20112;-74
2023/01/17 03:22:42;;;;;;;9.45;1.27;;;3.90;99.90;;;;;;5052710;28;20519;-74
2023/01/17 03:25:08;;;;;;;6.68;1.60;;;3.70;99.90;;;;;;5052037;28;20127;-74
2023/01/17 03:27:34;;;;;;;7.35;1.38;;;3.70;99.90;;;;;;5053420;28;20056;-74
2023/01/17 03:30:00;;;;;;;11.38;1.80;;;3.70;99.90;;;;;;5051901;28;20037;-74
2023/01/17 03:32:26;;;;;;;4.85;1.00;;;3.70;99.90;;;;;;5051356;28;20047;-74
2023/01/17 03:34:52;;;;;;;11.80;1.73;;;3.60;99.90;;;;;;5053425;28;20048;-74
2023/01/17 03:37:17;;;;;;;5.28;0.95;;;3.60;99.90;;;;;;5052568;28;20037;-74
2023/01/17 03:39:43;;;;;;;8.60;1.65;;;3.80;99.90;;;;;;5052121;28;20072;-74
2023/01/17 03:42:08;;;;;;;12.02;1.83;;;3.60;99.90;;;;;;5052168;28;20040;-74
2023/01/17 03:44:34;;;;;;;7.05;0.90;;;3.70;99.90;;;;;;5050962;28;20045;-74
2023/01/17 03:47:00;;;;;;;8.77;1.60;;;3.60;99.90;;;;;;5052025;28;20044;-74
2023/01/17 03:49:25;;;;;;;6.00;1.00;;;3.60;99.90;;;;;;5051783;28;20039;-74
2023/01/17 03:51:51;;;;;;;5.55;1.10;;;3.70;99.90;;;;;;5052878;28;20564;-74
2023/01/17 03:54:17;;;;;;;6.18;1.15;;;3.70;99.90;;;;;;5051632;28;20423;-74
2023/01/17 03:56:43;;;;;;;5.20;1.23;;;3.60;99.90;;;;;;5053032;28;20091;-74
2023/01/17 03:59:09;;;;;;;3.58;1.05;;;3.70;99.90;;;;;;5052923;28;20051;-74
2023/01/17 04:01:35;;;;;;;4.85;0.90;;;3.70;99.90;;;;;;5052813;28;20048;-74
2023/01/17 04:04:00;;;;;;;5.47;1.10;;;3.60;99.90;;;;;;5051998;28;20037;-74
2023/01/17 04:06:27;;;;;;;4.63;1.10;;;3.60;99.90;;;;;;5052488;28;20045;-74
2023/01/17 04:08:53;;;;;;;7.78;0.90;;;3.60;99.90;;;;;;5051156;28;20392;-74
2023/01/17 04:11:18;;;;;;;3.97;0.90;;;3.50;99.90;;;;;;5052393;28;20056;-74
2023/01/17 04:13:44;;;;;;;7.40;1.00;;;3.40;99.90;;;;;;5050440;28;20040;-74
2023/01/17 04:16:16;;;;;;;13.00;1.95;;;3.60;99.90;;;;;;5051121;28;20131;-74
2023/01/17 04:18:42;;;;;;;9.73;1.23;;;3.40;99.90;;;;;;5052558;28;20036;-74
2023/01/17 04:21:08;;;;;;;7.30;1.17;;;3.40;99.90;;;;;;5052393;28;20033;-74
2023/01/17 04:23:34;;;;;;;4.20;0.95;;;3.50;99.90;;;;;;5051560;28;20029;-74
2023/01/17 04:26:00;;;;;;;6.95;1.20;;;3.50;99.90;;;;;;5050860;28;20425;-74
2023/01/17 04:28:25;;;;;;;9.50;1.40;;;3.30;99.90;;;;;;5050679;28;20033;-74
2023/01/17 04:30:51;;;;;;;6.50;1.25;;;3.40;99.90;;;;;;5052200;28;20491;-74
2023/01/17 04:33:17;;;;;;;4.32;1.20;;;3.40;99.90;;;;;;5051243;28;20048;-74
2023/01/17 04:35:43;;;;;;;8.75;1.60;;;3.30;99.90;;;;;;5051352;28;20415;-74
2023/01/17 04:38:08;;;;;;;4.05;1.25;;;3.30;99.90;;;;;;5050607;28;20037;-74
2023/01/17 04:40:34;;;;;;;7.78;0.98;;;3.20;99.90;;;;;;5050921;28;20072;-74
2023/01/17 04:42:59;;;;;;;3.15;1.05;;;3.20;99.90;;;;;;5051251;28;20418;-74
2023/01/17 04:45:25;;;;;;;2.58;0.70;;;3.30;99.90;;;;;;5034257;28;20035;-74
2023/01/17 04:47:51;;;;;;;6.78;1.20;;;3.10;99.90;;;;;;5049828;28;20047;-74
2023/01/17 04:50:17;;;;;;;5.30;0.88;;;3.00;99.90;;;;;;5050301;28;20045;-74
2023/01/17 04:52:42;;;;;;;5.15;0.98;;;3.00;99.90;;;;;;5049797;28;20533;-74
2023/01/17 04:55:08;;;;;;;6.18;1.15;;;2.90;99.90;;;;;;5034054;28;20045;-74
2023/01/17 04:57:34;;;;;;;10.18;1.25;;;2.90;99.90;;;;;;5051521;28;20112;-74
2023/01/17 04:59:59;;;;;;;8.52;1.02;;;2.90;99.90;;;;;;5051873;28;20055;-73
2023/01/17 05:02:25;;;;;;;7.32;1.55;;;3.00;99.90;;;;;;5051023;28;20037;-74
2023/01/17 05:04:51;;;;;;;3.45;1.08;;;2.90;99.90;;;;;;5050680;28;20041;-74
2023/01/17 05:07:16;;;;;;;3.83;0.85;;;2.90;99.90;;;;;;5050257;28;20032;-74
2023/01/17 05:09:42;;;;;;;6.00;0.88;;;3.00;99.90;;;;;;5051750;28;20040;-74
2023/01/17 05:12:08;;;;;;;6.20;1.02;;;3.00;99.90;;;;;;5050417;28;20415;-74
2023/01/17 05:14:34;;;;;;;6.97;1.70;;;3.00;99.90;;;;;;5049601;28;20037;-74
2023/01/17 05:17:01;;;;;;;6.65;1.40;;;2.90;99.90;;;;;;5050228;28;20118;-74
2023/01/17 05:19:27;;;;;;;11.35;1.98;;;3.00;99.90;;;;;;5033851;28;20041;-74
2023/01/17 05:21:53;;;;;;;2.85;0.65;;;2.90;99.90;;;;;;5050386;28;20098;-74
2023/01/17 05:24:19;;;;;;;8.65;1.52;;;2.90;99.90;;;;;;5050654;28;20533;-74
2023/01/17 05:26:44;;;;;;;8.40;0.80;;;2.90;99.90;;;;;;5049895;28;20045;-74
2023/01/17 05:29:10;;;;;;;8.90;1.38;;;2.80;99.90;;;;;;5051472;28;20048;-74
2023/01/17 05:31:36;;;;;;;3.00;0.90;;;2.90;99.90;;;;;;5050129;28;20478;-74
2023/01/17 05:34:02;;;;;;;4.45;0.90;;;2.70;99.90;;;;;;5050612;28;20137;-74
2023/01/17 05:36:28;;;;;;;6.03;0.80;;;2.80;99.90;;;;;;5049890;28;20056;-74
2023/01/17 05:38:54;;;;;;;7.00;0.90;;;2.80;99.90;;;;;;5051507;28;20037;-74
2023/01/17 05:41:19;;;;;;;8.27;1.45;;;2.80;99.90;;;;;;5050325;28;20045;-73
2023/01/17 05:43:45;;;;;;;8.65;1.13;;;2.80;99.90;;;;;;5049271;28;20128;-74
2023/01/17 05:46:10;;;;;;;3.97;0.82;;;2.70;99.90;;;;;;5051205;28;20037;-73
2023/01/17 05:48:36;;;;;;;2.50;0.70;;;2.60;99.90;;;;;;5051115;28;20044;-73
2023/01/17 05:51:01;;;;;;;6.88;0.80;;;2.70;99.90;;;;;;5033259;28;20645;-74
2023/01/17 05:53:27;;;;;;;3.88;1.10;;;2.60;99.90;;;;;;5049352;28;20091;-73
2023/01/17 05:55:53;;;;;;;3.80;0.80;;;2.70;99.90;;;;;;5051259;28;20055;-74
2023/01/17 05:58:20;;;;;;;7.63;1.45;;;2.50;99.90;;;;;;5050892;28;20039;-73
2023/01/17 06:00:46;;;;;;;1.25;0.60;;;2.60;99.90;;;;;;5052801;28;20047;-73
2023/01/17 06:03:12;;;;;;;7.05;1.05;;;2.60;99.90;;;;;;5054153;28;20467;-73
2023/01/17 06:05:38;;;;;;;7.38;0.93;;;2.60;99.90;;;;;;5054794;28;20116;-73
2023/01/17 06:08:06;;;;;;;3.58;0.75;;;2.50;99.90;;;;;;5054887;28;20112;-73
2023/01/17 06:10:32;;;;;;;4.78;1.60;;;2.60;99.90;;;;;;5054880;28;20049;-74
2023/01/17 06:13:08;;;;;;;6.15;1.10;;;2.60;99.90;;;;;;5054292;28;20087;-73
2023/01/17 06:15:36;;;;;;;7.97;1.58;;;2.50;99.90;;;;;;5054987;28;20090;-73
2023/01/17 06:18:08;;;;;;;8.13;0.93;;;2.60;99.90;;;;;;5053356;28;20033;-73
2023/01/17 06:20:34;;;;;;;6.15;1.10;;;2.60;99.90;;;;;;5054836;28;20090;-74
2023/01/17 06:23:03;;;;;;;4.40;1.20;;;2.60;99.90;;;;;;5053673;28;20044;-73
2023/01/17 06:25:29;;;;;;;3.75;0.80;;;2.50;99.90;;;;;;5053388;28;20076;-73
2023/01/17 06:27:55;;;;;;;5.07;0.63;;;2.60;99.90;;;;;;5054404;28;20040;-73
2023/01/17 06:30:20;;;;;;;4.78;1.02;;;2.60;99.90;;;;;;5053129;28;20406;-74
2023/01/17 06:32:53;;;;;;;4.03;0.98;;;2.50;99.90;;;;;;5053537;28;20084;-73
2023/01/17 06:35:20;;;;;;;3.88;0.95;;;2.40;99.90;;;;;;5053175;28;20535;-73
2023/01/17 06:37:45;;;;;;;6.10;1.10;;;2.30;99.90;;;;;;5054187;28;20037;-73
2023/01/17 06:40:11;;;;;;;3.92;0.80;;;2.40;99.90;;;;;;5054314;28;20045;-74
2023/01/17 06:42:37;;;;;;;7.15;1.38;;;2.30;99.90;;;;;;5053423;28;20044;-74
2023/01/17 06:45:02;;;;;;;11.13;2.50;;;2.40;99.90;;;;;;5052835;28;20087;-73
2023/01/17 06:47:28;;;;;;;9.27;1.65;;;2.40;99.90;;;;;;5052666;28;20525;-73
2023/01/17 06:49:53;;;;;;;8.18;1.30;;;2.20;99.90;;;;;;5052985;28;20060;-73
2023/01/17 06:52:19;;;;;;;8.05;1.42;;;2.20;99.90;;;;;;5035499;28;20052;-73
2023/01/17 06:54:44;;;;;;;2.45;1.00;;;2.10;99.90;;;;;;5053728;28;20062;-73
2023/01/17 06:57:10;;;;;;;5.32;0.85;;;2.20;99.90;;;;;;5052483;28;20041;-73
2023/01/17 06:59:35;;;;;;;5.20;0.80;;;2.00;99.90;;;;;;5052405;28;20040;-73
2023/01/17 07:02:01;;;;;;;3.33;0.85;;;2.20;99.90;;;;;;5052421;28;20320;-73
2023/01/17 07:04:27;;;;;;;6.93;1.15;;;2.00;99.90;;;;;;5053142;28;20140;-73
2023/01/17 07:06:52;;;;;;;2.10;0.65;;;1.90;99.90;;;;;;5053667;28;20044;-74
2023/01/17 07:09:18;;;;;;;4.82;0.85;;;1.90;99.90;;;;;;5052500;28;20045;-73
2023/01/17 07:11:44;;;;;;;3.42;0.82;;;1.90;99.90;;;;;;5052587;28;20041;-73
2023/01/17 07:14:13;;;;;;;3.83;0.70;;;2.00;99.90;;;;;;5051518;28;20067;-73
2023/01/17 07:16:38;;;;;;;6.10;0.90;;;1.80;99.90;;;;;;5035547;28;20565;-74
2023/01/17 07:19:04;;;;;;;2.97;0.60;;;2.00;99.90;;;;;;5052146;28;20049;-73
2023/01/17 07:21:30;;;;;;;2.83;1.00;;;1.80;99.90;;;;;;5053411;28;20064;-73
2023/01/17 07:23:55;;;;;;;4.50;0.70;;;1.80;99.90;;;;;;5052834;28;20115;-74
2023/01/17 07:26:21;;;;;;;2.75;0.93;;;1.80;99.90;;;;;;5051777;28;20415;-73
2023/01/17 07:28:46;;;;;;;0.95;0.38;;;1.80;99.90;;;;;;5055755;23;20048;-73
2023/01/17 07:31:12;;;;;;;9.10;1.42;;;2.00;99.90;;;;;;5033603;28;20469;-74
2023/01/17 07:33:37;;;;;;;2.72;0.80;;;1.90;99.90;;;;;;5031276;28;20040;-73
2023/01/17 07:36:08;;;;;;;4.60;0.85;;;1.90;99.90;;;;;;5032145;28;20050;-73
2023/01/17 07:38:34;;;;;;;4.82;0.65;;;1.90;99.90;;;;;;5031807;28;20042;-73
2023/01/17 07:41:00;;;;;;;6.03;0.50;;;2.00;99.90;;;;;;5031753;28;20037;-74
2023/01/17 07:43:25;;;;;;;3.05;1.75;;;1.80;99.90;;;;;;5030926;28;20388;-74
2023/01/17 07:45:51;;;;;;;3.90;0.85;;;1.80;99.90;;;;;;5032024;28;20045;-74
2023/01/17 07:48:22;;;;;;;6.30;0.70;;;1.80;99.90;;;;;;5031637;28;20037;-73
2023/01/17 07:50:53;;;;;;;2.10;0.60;;;1.70;99.90;;;;;;5032034;28;20360;-73
2023/01/17 07:53:18;;;;;;;2.22;0.68;;;1.80;99.90;;;;;;5014440;28;20167;-73
2023/01/17 07:55:44;;;;;;;3.83;0.80;;;1.90;99.90;;;;;;5031900;28;20505;-73
2023/01/17 07:58:10;;;;;;;2.60;0.60;;;1.80;99.90;;;;;;5031282;28;20044;-73
2023/01/17 08:00:35;;;;;;;7.80;0.98;;;1.80;99.90;;;;;;5031739;28;20403;-73
2023/01/17 08:03:01;;;;;;;10.13;1.80;;;1.80;99.90;;;;;;5031002;28;20057;-74
2023/01/17 08:05:29;;;;;;;5.03;0.70;;;1.90;99.90;;;;;;5031337;28;20045;-73
2023/01/17 08:07:55;;;;;;;1.98;0.63;;;1.80;99.90;;;;;;5031267;28;20168;-74
2023/01/17 08:10:21;;;;;;;2.78;0.88;;;2.00;99.90;;;;;;5031151;28;20033;-73
2023/01/17 08:12:48;;;;;;;8.70;1.40;;;2.00;99.90;;;;;;5014141;28;20411;-73
2023/01/17 08:15:15;;;;;;;2.90;0.75;;;2.00;99.90;;;;;;5031353;28;20448;-73
2023/01/17 08:17:45;;;;;;;3.83;1.20;;;1.90;99.90;;;;;;5031282;28;20041;-73
2023/01/17 08:20:11;;;;;;;3.00;0.70;;;2.10;99.90;;;;;;5031253;28;20041;-74
2023/01/17 08:22:37;;;;;;;2.47;0.75;;;2.20;99.90;;;;;;5030151;28;20411;-73
2023/01/17 08:25:02;;;;;;;6.70;0.98;;;2.10;99.90;;;;;;5032298;28;20049;-73
2023/01/17 08:27:28;;;;;;;5.45;0.88;;;2.20;99.90;;;;;;5030745;28;20091;-73
2023/01/17 08:29:54;;;;;;;3.35;1.05;;;2.30;99.90;;;;;;5030923;28;20095;-73
2023/01/17 08:32:20;;;;;;;4.18;0.90;;;2.30;99.90;;;;;;5030417;28;20044;-73
2023/01/17 08:34:46;;;;;;;3.67;1.00;;;2.30;99.90;;;;;;5014217;28;20468;-73
2023/01/17 08:37:11;;;;;;;2.70;1.02;;;2.20;99.90;;;;;;5030753;28;20041;-73
2023/01/17 08:39:37;;;;;;;5.53;0.98;;;2.30;99.90;;;;;;5014489;28;20038;-73
2023/01/17 08:42:03;;;;;;;2.63;0.88;;;2.40;99.90;;;;;;5030697;28;20044;-73
2023/01/17 08:44:28;;;;;;;5.30;1.85;;;2.40;99.90;;;;;;5030200;28;20049;-74
2023/01/17 08:46:54;;;;;;;5.00;0.90;;;2.40;99.90;;;;;;5030907;28;20041;-73
2023/01/17 08:49:19;;;;;;;2.15;0.77;;;2.40;99.90;;;;;;5030693;28;20063;-73
2023/01/17 08:51:45;;;;;;;6.22;1.30;;;2.50;99.90;;;;;;5030787;28;20128;-73
2023/01/17 08:54:13;;;;;;;2.33;0.55;;;2.30;99.90;;;;;;5029490;28;20073;-73
2023/01/17 08:56:38;;;;;;;5.47;0.65;;;2.40;99.90;;;;;;5030388;28;20041;-73
2023/01/17 08:59:04;;;;;;;4.05;0.70;;;2.40;99.90;;;;;;5014345;28;20033;-73
2023/01/17 09:01:40;;;;;;;4.38;0.77;;;2.40;99.90;;;;;;5030510;28;20037;-73
2023/01/17 09:04:10;;;;;;;2.97;0.82;;;2.40;99.90;;;;;;5013297;28;20041;-73
2023/01/17 09:06:40;;;;;;;4.38;0.70;;;2.50;99.90;;;;;;5030460;28;20052;-73
2023/01/17 09:09:07;;;;;;;4.72;0.70;;;2.60;99.90;;;;;;5013880;28;20044;-73
2023/01/17 09:11:33;;;;;;;4.55;0.80;;;2.60;99.90;;;;;;5030452;28;20092;-73
2023/01/17 09:14:00;;;;;;;7.57;1.35;;;2.60;99.90;;;;;;5029831;28;20476;-74
2023/01/17 09:16:26;;;;;;;4.95;0.80;;;2.70;99.90;;;;;;5013960;28;20507;-74
2023/01/17 09:18:56;;;;;;;7.00;1.10;;;2.60;99.90;;;;;;5030844;28;20049;-73
2023/01/17 09:21:22;;;;;;;5.22;0.93;;;2.60;99.90;;;;;;5030128;28;20495;-73
2023/01/17 09:23:47;;;;;;;6.68;1.17;;;2.70;99.90;;;;;;5029416;28;20120;-73
2023/01/17 09:26:19;;;;;;;3.15;0.70;;;2.60;99.90;;;;;;5030476;28;20037;-73
2023/01/17 09:28:44;;;;;;;4.60;0.90;;;2.70;99.90;;;;;;5030127;28;20041;-74
2023/01/17 09:31:10;;;;;;;4.75;1.00;;;2.80;99.90;;;;;;5030347;28;20388;-73
2023/01/17 09:33:36;;;;;;;6.70;1.20;;;2.80;99.90;;;;;;5029623;28;20044;-73
2023/01/17 09:36:03;;;;;;;4.60;1.00;;;2.90;99.90;;;;;;5033426;28;20071;-73
2023/01/17 09:38:29;;;;;;;1.90;0.90;;;2.90;99.90;;;;;;5017926;28;20431;-73
2023/01/17 09:40:55;;;;;;;7.00;1.50;;;3.00;99.90;;;;;;5034143;28;20037;-73
2023/01/17 09:43:52;;;;;;;4.18;1.30;;;2.90;99.90;;;;;;5033330;28;20041;-73
2023/01/17 09:46:25;;;;;;;3.70;1.00;;;2.90;99.90;;;;;;5027141;28;20052;-73
2023/01/17 09:49:12;;;;;;;3.17;0.90;;;2.90;99.90;;;;;;5017537;28;20037;-73
2023/01/17 09:51:38;;;;;;;6.07;1.50;;;3.10;99.90;;;;;;5034516;28;20071;-73
2023/01/17 09:54:04;;;;;;;2.95;0.60;;;3.00;99.90;;;;;;5018606;28;20128;-73
2023/01/17 09:56:36;;;;;;;1.38;0.90;;;3.10;99.90;;;;;;5034458;28;20037;-73
2023/01/17 09:59:20;;;;;;;3.85;0.85;;;3.10;99.90;;;;;;5034658;28;20439;-74
2023/01/17 10:02:04;;;;;;;;;;;3.20;99.90;;;;;;5018637;28;20562;-73
2023/01/17 10:04:35;;;;;;;3.35;0.93;;;3.20;99.90;;;;;;5032993;28;19917;-74
2023/01/17 10:07:20;;;;;;;1.95;0.95;;;3.20;99.90;;;;;;5017067;28;20053;-74
2023/01/17 10:09:59;;;;;;;2.63;1.00;;;3.30;99.90;;;;;;5033704;28;20096;-73
2023/01/17 10:12:43;;;;;;;6.07;1.73;;;3.20;99.90;;;;;;5032833;28;20045;-73
2023/01/17 10:15:36;;;;;;;3.85;0.77;;;3.20;99.90;;;;;;5034001;28;20037;-74
2023/01/17 10:18:32;;;;;;;1.65;0.60;;;3.10;99.90;;;;;;5033531;28;20045;-74
2023/01/17 10:21:17;;;;;;;5.18;0.93;;;3.10;99.90;;;;;;5033773;28;20041;-73
2023/01/17 10:24:15;;;;;;;3.83;1.55;;;3.20;99.90;;;;;;5032513;28;20076;-73
2023/01/17 10:26:45;;;;;;;3.53;1.10;;;3.20;99.90;;;;;;5016566;28;20092;-74
2023/01/17 10:29:18;;;;;;;3.03;1.10;;;3.20;99.90;;;;;;5033155;28;20060;-74
2023/01/17 10:31:53;;;;;;;;;;;3.30;99.90;;;;;;5033578;28;20033;-73
2023/01/17 10:34:24;;;;;;;4.47;1.25;;;3.20;99.90;;;;;;5032334;28;19924;-74
2023/01/17 10:36:56;;;;;;;2.92;0.77;;;3.20;99.90;;;;;;5033300;28;20045;-74
2023/01/17 10:39:23;;;;;;;6.15;0.85;;;3.40;99.90;;;;;;5034324;28;20041;-74
2023/01/17 10:42:10;;;;;;;3.88;2.00;;;3.30;99.90;;;;;;5032979;28;20037;-74
2023/01/17 10:44:39;;;;;;;8.38;1.50;;;3.50;99.90;;;;;;5032357;28;20041;-74
2023/01/17 10:47:11;;;;;;;5.93;1.10;;;3.50;99.90;;;;;;5032754;28;20048;-74
2023/01/17 10:49:41;;;;;;;4.20;0.95;;;3.60;99.90;;;;;;5032923;28;20451;-74
2023/01/17 10:52:15;;;;;;;2.13;0.90;;;3.60;99.90;;;;;;5032825;28;20596;-74
2023/01/17 10:55:15;;;;;;;3.80;1.05;;;3.70;99.90;;;;;;5032350;28;20080;-74
2023/01/17 10:57:47;;;;;;;4.68;1.05;;;3.70;99.90;;;;;;5032624;28;20037;-74
2023/01/17 11:00:50;;;;;;;4.68;1.02;;;3.70;99.90;;;;;;5032874;28;20411;-74
2023/01/17 11:03:22;;;;;;;2.97;0.90;;;3.70;99.90;;;;;;5031882;28;20041;-74
2023/01/17 11:06:21;;;;;;;2.72;1.20;;;3.80;99.90;;;;;;5032862;28;20531;-74
2023/01/17 11:08:51;;;;;;;1.85;0.63;;;3.70;99.90;;;;;;5028480;28;20055;-74
2023/01/17 11:11:19;;;;;;;4.00;1.00;;;3.80;99.90;;;;;;5032652;28;20516;-74
2023/01/17 11:13:47;;;;;;;3.17;1.13;;;3.80;99.90;;;;;;5031643;28;20037;-74
2023/01/17 11:16:20;;;;;;;2.88;1.65;;;3.90;99.90;;;;;;5033571;28;20164;-74
2023/01/17 11:18:48;;;;;;;4.50;1.55;;;3.90;99.90;;;;;;5032513;28;20397;-74
2023/01/17 11:21:22;;;;;;;4.63;0.90;;;3.90;99.90;;;;;;5032245;28;20392;-74
2023/01/17 11:23:52;;;;;;;8.93;1.88;;;3.90;99.90;;;;;;5031756;28;20124;-74
2023/01/17 11:26:28;;;;;;;7.10;2.08;;;3.80;99.90;;;;;;5015627;28;20079;-74
2023/01/17 11:29:30;;;;;;;4.28;0.90;;;3.90;99.90;;;;;;5031802;28;20039;-74
2023/01/17 11:31:56;;;;;;;3.25;0.90;;;3.90;99.90;;;;;;5032316;28;20041;-74
2023/01/17 11:34:28;;;;;;;4.50;1.38;;;4.00;99.90;;;;;;5031529;28;20040;-74
2023/01/17 11:37:19;;;;;;;8.13;2.28;;;3.90;99.90;;;;;;5015263;28;20087;-74
2023/01/17 11:39:47;;;;;;;5.82;1.98;;;3.90;99.90;;;;;;5031944;28;20041;-74
2023/01/17 11:43:01;;;;;;;5.20;0.98;;;4.00;99.90;;;;;;5031713;28;20709;-74
2023/01/17 11:45:33;;;;;;;6.38;1.98;;;3.90;99.90;;;;;;5014225;28;20041;-74
2023/01/17 11:48:07;;;;;;;13.57;3.50;;;4.00;99.90;;;;;;5014289;28;20593;-74
2023/01/17 11:50:43;;;;;;;4.30;1.30;;;4.00;99.90;;;;;;5024043;28;20128;-74
2023/01/17 11:53:20;;;;;;;3.22;1.00;;;4.10;99.90;;;;;;5014807;28;20695;-74
2023/01/17 11:55:57;;;;;;;5.90;1.15;;;4.00;99.90;;;;;;5031392;28;20081;-74
2023/01/17 11:58:24;;;;;;;2.38;1.00;;;4.10;99.90;;;;;;5030893;28;20095;-74
2023/01/17 12:01:13;;;;;;;2.90;0.80;;;4.20;99.90;;;;;;5031682;28;20048;-74
2023/01/17 12:03:50;;;;;;;7.88;1.02;;;4.10;99.90;;;;;;5030686;28;20095;-74
2023/01/17 12:06:21;;;;;;;3.85;1.10;;;4.30;99.90;;;;;;5031372;28;20084;-74
2023/01/17 12:09:07;;;;;;;6.47;1.45;;;4.30;99.90;;;;;;5032553;28;20480;-74
2023/01/17 12:13:59;;;;;;;3.63;1.15;;;4.30;99.90;;;;;;5031254;28;20047;-74
2023/01/17 12:14:41;;;;;;;2.72;1.20;;;4.20;99.90;;;;;;5030334;28;20610;-74
2023/01/17 12:18:07;;;;;;;4.43;1.17;;;4.30;99.90;;;;;;5014777;28;20041;-74
2023/01/17 12:20:55;;;;;;;3.72;0.88;;;4.30;99.90;;;;;;4997017;28;20045;-74
2023/01/17 12:23:41;;;;;;;2.08;0.85;;;4.40;99.90;;;;;;5029128;28;20045;-74
2023/01/17 12:26:18;;;;;;;7.70;2.38;;;4.50;99.90;;;;;;5014725;28;20052;-74
2023/01/17 12:29:10;;;;;;;4.68;1.00;;;4.40;99.90;;;;;;5014275;28;20124;-74
2023/01/17 12:31:46;;;;;;;4.68;1.10;;;4.50;99.90;;;;;;5021186;28;20045;-74
2023/01/17 12:34:24;;;;;;;3.33;1.50;;;4.50;99.90;;;;;;5030334;28;20041;-74
2023/01/17 12:37:00;;;;;;;6.07;1.02;;;4.50;99.90;;;;;;5030791;28;20080;-74
2023/01/17 12:39:38;;;;;;;3.95;1.00;;;4.50;99.90;;;;;;5014263;28;20045;-74
2023/01/17 12:42:19;;;;;;;2.08;0.90;;;4.50;99.90;;;;;;5030705;28;20041;-74
2023/01/17 12:44:51;;;;;;;6.38;1.00;;;4.50;99.90;;;;;;5030513;28;20084;-74
2023/01/17 12:47:19;;;;;;;2.90;0.75;;;4.60;99.90;;;;;;5030571;28;20045;-74
2023/01/17 12:49:51;;;;;;;2.72;0.90;;;4.50;99.90;;;;;;5030526;28;20068;-74
2023/01/17 12:52:45;;;;;;;5.85;1.00;;;4.60;99.90;;;;;;5030205;28;20048;-74
2023/01/17 12:55:19;;;;;;;3.30;0.95;;;4.50;99.90;;;;;;5014185;28;20065;-74
2023/01/17 12:57:52;;;;;;;3.03;0.85;;;4.40;99.90;;;;;;5014116;28;20037;-74
2023/01/17 13:00:21;;;;;;;6.63;1.35;;;4.40;99.90;;;;;;5030478;28;20127;-74
2023/01/17 13:02:54;;;;;;;5.68;0.93;;;4.30;99.90;;;;;;5012756;28;20427;-72
2023/01/17 13:05:25;;;;;;;7.85;1.08;;;4.50;99.90;;;;;;5029981;28;20099;-71
2023/01/17 13:08:18;;;;;;;5.55;1.25;;;4.50;99.90;;;;;;5029436;28;20046;-72
2023/01/17 13:11:05;;;;;;;1.75;0.80;;;4.40;99.90;;;;;;5026805;28;20703;-72
2023/01/17 13:13:31;;;;;;;2.25;0.63;;;4.50;99.90;;;;;;5027639;28;20475;-71
2023/01/17 13:16:07;;;;;;;8.50;1.75;;;4.50;99.90;;;;;;5031102;28;20459;-72
2023/01/17 13:18:35;;;;;;;3.75;0.90;;;4.50;99.90;;;;;;5030271;28;20517;-72
2023/01/17 13:21:13;;;;;;;2.85;0.70;;;4.50;99.90;;;;;;5030368;28;20399;-72
2023/01/17 13:23:58;;;;;;;5.07;1.13;;;4.50;99.90;;;;;;5029404;28;20041;-72
2023/01/17 13:26:43;;;;;;;4.72;0.98;;;4.40;99.90;;;;;;5029665;28;20100;-72
2023/01/17 13:29:27;;;;;;;6.30;1.92;;;4.40;99.90;;;;;;5049136;23;20057;-69
2023/01/17 13:32:13;;;;;;;3.53;1.20;;;4.40;99.90;;;;;;5031497;28;20045;-69
2023/01/17 13:34:47;;;;;;;3.28;0.80;;;4.40;99.90;;;;;;5030939;28;20085;-69
2023/01/17 13:37:51;;;;;;;2.55;0.82;;;4.40;99.90;;;;;;5033315;28;20407;-69
2023/01/17 13:40:57;;;;;;;5.13;1.30;;;4.40;99.90;;;;;;5051351;28;20564;-69
2023/01/17 13:43:34;;;;;;;5.35;1.83;;;4.30;99.90;;;;;;5049212;28;20052;-69
2023/01/17 13:46:02;;;;;;;1.27;0.75;;;4.30;99.90;;;;;;5033361;28;20041;-69
2023/01/17 13:48:39;;;;;;;1.75;0.63;;;4.30;99.90;;;;;;5051239;28;20037;-69
2023/01/17 13:51:06;;;;;;;4.05;1.15;;;4.30;99.90;;;;;;5051179;28;20077;-69
2023/01/17 13:53:38;;;;;;;4.28;0.82;;;4.40;99.90;;;;;;5050167;28;20124;-69
2023/01/17 13:56:17;;;;;;;2.65;0.70;;;4.40;99.90;;;;;;5050689;28;20041;-69
2023/01/17 13:58:56;;;;;;;2.25;0.70;;;4.40;99.90;;;;;;5049763;28;20048;-69
2023/01/17 14:01:22;;;;;;;4.45;0.75;;;4.50;99.90;;;;;;5050978;28;20052;-69
2023/01/17 14:03:53;;;;;;;2.42;0.70;;;4.50;99.90;;;;;;5050240;28;20067;-69
2023/01/17 14:06:44;;;;;;;3.05;0.85;;;4.50;99.90;;;;;;5049781;28;20052;-69
2023/01/17 14:09:29;;;;;;;2.28;0.60;;;4.60;99.90;;;;;;5050777;28;20037;-69
2023/01/17 14:11:55;;;;;;;4.28;0.90;;;4.60;99.90;;;;;;5050698;28;20482;-69
2023/01/17 14:14:38;;;;;;;2.58;0.80;;;4.70;99.90;;;;;;5050112;28;20045;-69
2023/01/17 14:17:16;;;;;;;;;;;4.70;99.90;;;;;;5051074;28;20053;-69
2023/01/17 14:19:47;;;;;;;2.10;0.52;;;4.60;99.90;;;;;;5050760;28;20402;-69
2023/01/17 14:22:18;;;;;;;3.22;0.43;;;4.60;99.90;;;;;;5052622;28;20056;-69
2023/01/17 14:25:02;;;;;;;4.88;1.17;;;4.60;99.90;;;;;;5052718;28;20064;-69
2023/01/17 14:27:29;;;;;;;;;;;4.60;99.90;;;;;;5053243;28;20048;-69
2023/01/17 14:29:59;;;;;;;0.73;0.40;;;4.50;99.90;;;;;;5052931;28;20015;-69
2023/01/17 14:32:37;;;;;;;1.75;0.70;;;4.50;99.90;;;;;;5052164;28;20537;-69
2023/01/17 14:35:04;;;;;;;2.15;1.00;;;4.50;99.90;;;;;;5054304;28;20513;-69
2023/01/17 14:38:04;;;;;;;5.15;0.68;;;4.50;99.90;;;;;;5052835;28;20037;-69
2023/01/17 14:40:32;;;;;;;2.28;1.00;;;4.50;99.90;;;;;;5054011;28;20048;-70